General Mitchell International Airport
KMKE : now visible

Airfield :











YOU CAN JOIN US ON...

 
LOGIN :

Register | Disclaimer

   EN    FR    IT 

 









Legend :    VFR   Marginal VFR   IFR   Intensive IFR   Very Intensive IFR
Visi :
Ceiling :
>= 8 km
>= 3000ft
5 to 8 km
1000 to 3000 ft
1500m to 5 km
500 to 1000 ft
800 to 1500m
200 to 500 ft
< 800m
< 200 ft
Symbols :   Thunderstorms  Fog  Heavy snow  Heavy precipitations  Wind > 20 kt






- Airport Elevation : 723 ft
- IATA code : MKE


KMKE - General Mitchell International

CURRENT METAR :
  • 080652Z 20013KT 10SM SCT200 BKN250 02/M03 A3003 RMK AO2 SLP175 T00221033

EXPIRED METARs :
  • 080552Z 20012KT 10SM FEW200 BKN250 02/M03 A3006 RMK AO2 SLP187 T00221033 10022 20011 400391028 56020
  • 080452Z 20011KT 10SM BKN250 02/M03 A3008 RMK AO2 SLP195 T00171033

TAF KMKE
Valid from the 08 at 06:00 until the 09 at 12:00 UTC


080531Z 0806/0912 20012G21KT P6SM BKN200 WS015/21045KT
FM080800 20015G25KT P6SM BKN200 WS020/21050KT
FM081400 21015G24KT P6SM BKN050
FM082100 22010KT P6SM OVC029
FM090400 VRB03KT P6SM OVC007
FM090600 06005KT 4SM -DZ BR OVC003



MET'MAP, your aeronautical weather chart ! - Copyright ORBIFLY December 2007 - Disclaimer

ORBIFLY MET'MAP TEAM :

Programming & Development : Alexandra Zaïnal
Concept & original design : Baudouin d'Aumeries
Assistance for programming : Marc-Olivier Méhu
Technical & hardware support : Manuel Goepfert

Contact : metmap@orbifly.com




SOURCES & CREDITS :

   NOAA       Earth
Advisory